sensor_id;sensor_type;location;lat;lon;timestamp;temperature;humidity
28171;DHT22;15458;53.346;-1.688;2022-12-29T00:01:48;8.50;99.90
28171;DHT22;15458;53.346;-1.688;2022-12-29T00:04:18;8.40;99.90
28171;DHT22;15458;53.346;-1.688;2022-12-29T00:06:46;8.40;99.90
28171;DHT22;15458;53.346;-1.688;2022-12-29T00:09:12;8.40;99.90
28171;DHT22;15458;53.346;-1.688;2022-12-29T00:11:42;8.40;99.90
28171;DHT22;15458;53.346;-1.688;2022-12-29T00:14:09;8.40;99.90
28171;DHT22;15458;53.346;-1.688;2022-12-29T00:16:54;8.40;99.90
28171;DHT22;15458;53.346;-1.688;2022-12-29T00:19:20;8.40;99.90
28171;DHT22;15458;53.346;-1.688;2022-12-29T00:22:05;8.40;99.90
28171;DHT22;15458;53.346;-1.688;2022-12-29T00:24:51;8.40;99.90
28171;DHT22;15458;53.346;-1.688;2022-12-29T00:27:35;8.40;99.90
28171;DHT22;15458;53.346;-1.688;2022-12-29T00:30:21;8.40;99.90
28171;DHT22;15458;53.346;-1.688;2022-12-29T00:36:32;8.30;99.90
28171;DHT22;15458;53.346;-1.688;2022-12-29T00:39:03;8.30;99.90
28171;DHT22;15458;53.346;-1.688;2022-12-29T00:41:49;8.20;99.90
28171;DHT22;15458;53.346;-1.688;2022-12-29T00:44:33;8.20;99.90
28171;DHT22;15458;53.346;-1.688;2022-12-29T00:47:01;8.20;99.90
28171;DHT22;15458;53.346;-1.688;2022-12-29T00:49:30;8.20;99.90
28171;DHT22;15458;53.346;-1.688;2022-12-29T00:52:07;8.20;99.90
28171;DHT22;15458;53.346;-1.688;2022-12-29T00:54:37;8.20;99.90
28171;DHT22;15458;53.346;-1.688;2022-12-29T00:57:04;8.20;99.90
28171;DHT22;15458;53.346;-1.688;2022-12-29T00:59:37;8.20;99.90
28171;DHT22;15458;53.346;-1.688;2022-12-29T01:02:03;8.10;99.90
28171;DHT22;15458;53.346;-1.688;2022-12-29T01:04:29;8.10;99.90
28171;DHT22;15458;53.346;-1.688;2022-12-29T01:06:54;8.10;99.90
28171;DHT22;15458;53.346;-1.688;2022-12-29T01:09:21;8.10;99.90
28171;DHT22;15458;53.346;-1.688;2022-12-29T01:12:06;8.10;99.90
28171;DHT22;15458;53.346;-1.688;2022-12-29T01:14:32;8.20;99.90
28171;DHT22;15458;53.346;-1.688;2022-12-29T01:17:01;8.20;99.90
28171;DHT22;15458;53.346;-1.688;2022-12-29T01:19:27;8.20;99.90
28171;DHT22;15458;53.346;-1.688;2022-12-29T01:21:53;8.20;99.90
28171;DHT22;15458;53.346;-1.688;2022-12-29T01:24:25;8.20;99.90
28171;DHT22;15458;53.346;-1.688;2022-12-29T01:26:51;8.20;99.90
28171;DHT22;15458;53.346;-1.688;2022-12-29T01:29:18;8.20;99.90
28171;DHT22;15458;53.346;-1.688;2022-12-29T01:31:44;8.20;99.90
28171;DHT22;15458;53.346;-1.688;2022-12-29T01:34:10;8.20;99.90
28171;DHT22;15458;53.346;-1.688;2022-12-29T01:36:36;8.20;99.90
28171;DHT22;15458;53.346;-1.688;2022-12-29T01:39:02;8.20;99.90
28171;DHT22;15458;53.346;-1.688;2022-12-29T01:41:28;8.20;99.90
28171;DHT22;15458;53.346;-1.688;2022-12-29T01:43:56;8.20;99.90
28171;DHT22;15458;53.346;-1.688;2022-12-29T01:48:54;8.10;99.90
28171;DHT22;15458;53.346;-1.688;2022-12-29T01:51:23;8.10;99.90
28171;DHT22;15458;53.346;-1.688;2022-12-29T01:53:50;8.10;99.90
28171;DHT22;15458;53.346;-1.688;2022-12-29T01:56:18;8.00;99.90
28171;DHT22;15458;53.346;-1.688;2022-12-29T01:58:46;7.90;99.90
28171;DHT22;15458;53.346;-1.688;2022-12-29T02:01:14;7.90;99.90
28171;DHT22;15458;53.346;-1.688;2022-12-29T02:03:41;7.90;99.90
28171;DHT22;15458;53.346;-1.688;2022-12-29T02:06:12;7.80;99.90
28171;DHT22;15458;53.346;-1.688;2022-12-29T02:08:44;7.70;99.90
28171;DHT22;15458;53.346;-1.688;2022-12-29T02:11:11;7.70;99.90
28171;DHT22;15458;53.346;-1.688;2022-12-29T02:13:38;7.50;99.90
28171;DHT22;15458;53.346;-1.688;2022-12-29T02:22:34;6.60;99.90
28171;DHT22;15458;53.346;-1.688;2022-12-29T02:39:05;6.00;99.90
28171;DHT22;15458;53.346;-1.688;2022-12-29T02:45:05;5.90;99.90
28171;DHT22;15458;53.346;-1.688;2022-12-29T02:47:40;5.90;99.90
28171;DHT22;15458;53.346;-1.688;2022-12-29T02:53:02;5.90;99.90
28171;DHT22;15458;53.346;-1.688;2022-12-29T02:55:30;5.90;99.90
28171;DHT22;15458;53.346;-1.688;2022-12-29T02:58:18;5.90;99.90
28171;DHT22;15458;53.346;-1.688;2022-12-29T03:06:50;6.00;99.90
28171;DHT22;15458;53.346;-1.688;2022-12-29T03:09:14;6.00;99.90
28171;DHT22;15458;53.346;-1.688;2022-12-29T03:11:51;6.00;99.90
28171;DHT22;15458;53.346;-1.688;2022-12-29T03:17:59;6.10;99.90
28171;DHT22;15458;53.346;-1.688;2022-12-29T03:20:32;6.10;99.90
28171;DHT22;15458;53.346;-1.688;2022-12-29T03:23:06;6.20;99.90
28171;DHT22;15458;53.346;-1.688;2022-12-29T03:25:37;6.20;99.90
28171;DHT22;15458;53.346;-1.688;2022-12-29T03:28:09;6.20;99.90
28171;DHT22;15458;53.346;-1.688;2022-12-29T03:30:36;6.20;99.90
28171;DHT22;15458;53.346;-1.688;2022-12-29T03:33:07;6.20;99.90
28171;DHT22;15458;53.346;-1.688;2022-12-29T03:35:37;6.20;99.90
28171;DHT22;15458;53.346;-1.688;2022-12-29T03:40:38;6.30;99.90
28171;DHT22;15458;53.346;-1.688;2022-12-29T03:43:05;6.30;99.90
28171;DHT22;15458;53.346;-1.688;2022-12-29T03:45:31;6.40;99.90
28171;DHT22;15458;53.346;-1.688;2022-12-29T03:47:57;6.30;99.90
28171;DHT22;15458;53.346;-1.688;2022-12-29T03:50:23;6.40;99.90
28171;DHT22;15458;53.346;-1.688;2022-12-29T03:52:48;6.40;99.90
28171;DHT22;15458;53.346;-1.688;2022-12-29T03:55:14;6.40;99.90
28171;DHT22;15458;53.346;-1.688;2022-12-29T03:57:40;6.40;99.90
28171;DHT22;15458;53.346;-1.688;2022-12-29T04:00:06;6.40;99.90
28171;DHT22;15458;53.346;-1.688;2022-12-29T04:02:33;6.40;99.90
28171;DHT22;15458;53.346;-1.688;2022-12-29T04:04:59;6.40;99.90
28171;DHT22;15458;53.346;-1.688;2022-12-29T04:07:30;6.40;99.90
28171;DHT22;15458;53.346;-1.688;2022-12-29T04:09:56;6.40;99.90
28171;DHT22;15458;53.346;-1.688;2022-12-29T04:12:24;6.40;99.90
28171;DHT22;15458;53.346;-1.688;2022-12-29T04:14:51;6.50;99.90
28171;DHT22;15458;53.346;-1.688;2022-12-29T04:17:17;6.50;99.90
28171;DHT22;15458;53.346;-1.688;2022-12-29T04:19:43;6.50;99.90
28171;DHT22;15458;53.346;-1.688;2022-12-29T04:22:09;6.50;99.90
28171;DHT22;15458;53.346;-1.688;2022-12-29T04:24:34;6.50;99.90
28171;DHT22;15458;53.346;-1.688;2022-12-29T04:27:00;6.50;99.90
28171;DHT22;15458;53.346;-1.688;2022-12-29T04:29:29;6.50;99.90
28171;DHT22;15458;53.346;-1.688;2022-12-29T04:31:54;6.50;99.90
28171;DHT22;15458;53.346;-1.688;2022-12-29T04:34:20;6.50;99.90
28171;DHT22;15458;53.346;-1.688;2022-12-29T04:36:45;6.50;99.90
28171;DHT22;15458;53.346;-1.688;2022-12-29T04:39:11;6.50;99.90
28171;DHT22;15458;53.346;-1.688;2022-12-29T04:41:39;6.50;99.90
28171;DHT22;15458;53.346;-1.688;2022-12-29T04:44:06;6.50;99.90
28171;DHT22;15458;53.346;-1.688;2022-12-29T04:46:31;6.50;99.90
28171;DHT22;15458;53.346;-1.688;2022-12-29T04:48:57;6.50;99.90
28171;DHT22;15458;53.346;-1.688;2022-12-29T04:51:23;6.50;99.90
28171;DHT22;15458;53.346;-1.688;2022-12-29T04:53:49;6.50;99.90
28171;DHT22;15458;53.346;-1.688;2022-12-29T04:56:14;6.50;99.90
28171;DHT22;15458;53.346;-1.688;2022-12-29T04:58:40;6.50;99.90
28171;DHT22;15458;53.346;-1.688;2022-12-29T05:01:06;6.50;99.90
28171;DHT22;15458;53.346;-1.688;2022-12-29T05:03:31;6.50;99.90
28171;DHT22;15458;53.346;-1.688;2022-12-29T05:05:58;6.50;99.90
28171;DHT22;15458;53.346;-1.688;2022-12-29T05:08:25;6.50;99.90
28171;DHT22;15458;53.346;-1.688;2022-12-29T05:10:51;6.50;99.90
28171;DHT22;15458;53.346;-1.688;2022-12-29T05:13:18;6.50;99.90
28171;DHT22;15458;53.346;-1.688;2022-12-29T05:15:50;6.50;99.90
28171;DHT22;15458;53.346;-1.688;2022-12-29T05:18:17;6.50;99.90
28171;DHT22;15458;53.346;-1.688;2022-12-29T05:20:42;6.50;99.90
28171;DHT22;15458;53.346;-1.688;2022-12-29T05:23:08;6.50;99.90
28171;DHT22;15458;53.346;-1.688;2022-12-29T05:25:34;6.50;99.90
28171;DHT22;15458;53.346;-1.688;2022-12-29T05:27:59;6.50;99.90
28171;DHT22;15458;53.346;-1.688;2022-12-29T05:30:28;6.50;99.90
28171;DHT22;15458;53.346;-1.688;2022-12-29T05:32:53;6.50;99.90
28171;DHT22;15458;53.346;-1.688;2022-12-29T05:35:19;6.50;99.90
28171;DHT22;15458;53.346;-1.688;2022-12-29T05:37:45;6.50;99.90
28171;DHT22;15458;53.346;-1.688;2022-12-29T05:40:11;6.50;99.90
28171;DHT22;15458;53.346;-1.688;2022-12-29T05:42:37;6.50;99.90
28171;DHT22;15458;53.346;-1.688;2022-12-29T05:45:05;6.50;99.90
28171;DHT22;15458;53.346;-1.688;2022-12-29T05:47:32;6.60;99.90
28171;DHT22;15458;53.346;-1.688;2022-12-29T05:49:58;6.60;99.90
28171;DHT22;15458;53.346;-1.688;2022-12-29T05:52:27;6.50;99.90
28171;DHT22;15458;53.346;-1.688;2022-12-29T05:54:54;6.50;99.90
28171;DHT22;15458;53.346;-1.688;2022-12-29T05:57:21;6.50;99.90
28171;DHT22;15458;53.346;-1.688;2022-12-29T05:59:46;6.50;99.90
28171;DHT22;15458;53.346;-1.688;2022-12-29T06:02:12;6.50;99.90
28171;DHT22;15458;53.346;-1.688;2022-12-29T06:04:38;6.40;99.90
28171;DHT22;15458;53.346;-1.688;2022-12-29T06:07:03;6.40;99.90
28171;DHT22;15458;53.346;-1.688;2022-12-29T06:09:29;6.40;99.90
28171;DHT22;15458;53.346;-1.688;2022-12-29T06:11:55;6.40;99.90
28171;DHT22;15458;53.346;-1.688;2022-12-29T06:14:21;6.40;99.90
28171;DHT22;15458;53.346;-1.688;2022-12-29T06:16:46;6.40;99.90
28171;DHT22;15458;53.346;-1.688;2022-12-29T06:19:12;6.40;99.90
28171;DHT22;15458;53.346;-1.688;2022-12-29T06:21:38;6.30;99.90
28171;DHT22;15458;53.346;-1.688;2022-12-29T06:24:04;6.30;99.90
28171;DHT22;15458;53.346;-1.688;2022-12-29T06:26:30;6.30;99.90
28171;DHT22;15458;53.346;-1.688;2022-12-29T06:28:56;6.30;99.90
28171;DHT22;15458;53.346;-1.688;2022-12-29T06:31:21;6.30;99.90
28171;DHT22;15458;53.346;-1.688;2022-12-29T06:33:50;6.30;99.90
28171;DHT22;15458;53.346;-1.688;2022-12-29T06:36:15;6.30;99.90
28171;DHT22;15458;53.346;-1.688;2022-12-29T06:38:41;6.30;99.90
28171;DHT22;15458;53.346;-1.688;2022-12-29T06:41:07;6.30;99.90
28171;DHT22;15458;53.346;-1.688;2022-12-29T06:43:32;6.30;99.90
28171;DHT22;15458;53.346;-1.688;2022-12-29T06:46:00;6.30;99.90
28171;DHT22;15458;53.346;-1.688;2022-12-29T06:48:25;6.30;99.90
28171;DHT22;15458;53.346;-1.688;2022-12-29T06:50:52;6.30;99.90
28171;DHT22;15458;53.346;-1.688;2022-12-29T06:53:18;6.30;99.90
28171;DHT22;15458;53.346;-1.688;2022-12-29T06:55:44;6.30;99.90
28171;DHT22;15458;53.346;-1.688;2022-12-29T06:58:10;6.30;99.90
28171;DHT22;15458;53.346;-1.688;2022-12-29T07:00:37;6.30;99.90
28171;DHT22;15458;53.346;-1.688;2022-12-29T07:03:05;6.30;99.90
28171;DHT22;15458;53.346;-1.688;2022-12-29T07:05:31;6.30;99.90
28171;DHT22;15458;53.346;-1.688;2022-12-29T07:07:58;6.30;99.90
28171;DHT22;15458;53.346;-1.688;2022-12-29T07:10:28;6.30;99.90
28171;DHT22;15458;53.346;-1.688;2022-12-29T07:12:54;6.30;99.90
28171;DHT22;15458;53.346;-1.688;2022-12-29T07:15:19;6.30;99.90
28171;DHT22;15458;53.346;-1.688;2022-12-29T07:17:45;6.20;99.90
28171;DHT22;15458;53.346;-1.688;2022-12-29T07:20:11;6.20;99.90
28171;DHT22;15458;53.346;-1.688;2022-12-29T07:22:36;6.20;99.90
28171;DHT22;15458;53.346;-1.688;2022-12-29T07:25:02;6.20;99.90
28171;DHT22;15458;53.346;-1.688;2022-12-29T07:27:28;6.20;99.90
28171;DHT22;15458;53.346;-1.688;2022-12-29T07:29:54;6.20;99.90
28171;DHT22;15458;53.346;-1.688;2022-12-29T07:32:20;6.20;99.90
28171;DHT22;15458;53.346;-1.688;2022-12-29T07:34:47;6.20;99.90
28171;DHT22;15458;53.346;-1.688;2022-12-29T07:37:15;6.20;99.90
28171;DHT22;15458;53.346;-1.688;2022-12-29T07:39:43;6.10;99.90
28171;DHT22;15458;53.346;-1.688;2022-12-29T07:42:08;6.10;99.90
28171;DHT22;15458;53.346;-1.688;2022-12-29T07:44:34;6.10;99.90
28171;DHT22;15458;53.346;-1.688;2022-12-29T07:47:00;6.10;99.90
28171;DHT22;15458;53.346;-1.688;2022-12-29T07:49:27;6.10;99.90
28171;DHT22;15458;53.346;-1.688;2022-12-29T07:52:05;6.10;99.90
28171;DHT22;15458;53.346;-1.688;2022-12-29T07:54:31;6.10;99.90
28171;DHT22;15458;53.346;-1.688;2022-12-29T07:57:03;6.10;99.90
28171;DHT22;15458;53.346;-1.688;2022-12-29T07:59:31;6.10;99.90
28171;DHT22;15458;53.346;-1.688;2022-12-29T08:01:57;6.10;99.90
28171;DHT22;15458;53.346;-1.688;2022-12-29T08:04:23;6.10;99.90
28171;DHT22;15458;53.346;-1.688;2022-12-29T08:06:48;6.10;99.90
28171;DHT22;15458;53.346;-1.688;2022-12-29T08:09:18;6.00;99.90
28171;DHT22;15458;53.346;-1.688;2022-12-29T08:11:46;6.00;99.90
28171;DHT22;15458;53.346;-1.688;2022-12-29T08:14:13;6.00;99.90
28171;DHT22;15458;53.346;-1.688;2022-12-29T08:16:38;6.00;99.90
28171;DHT22;15458;53.346;-1.688;2022-12-29T08:19:04;6.00;99.90
28171;DHT22;15458;53.346;-1.688;2022-12-29T08:21:34;6.00;99.90
28171;DHT22;15458;53.346;-1.688;2022-12-29T08:24:00;6.00;99.90
28171;DHT22;15458;53.346;-1.688;2022-12-29T08:26:27;6.00;99.90
28171;DHT22;15458;53.346;-1.688;2022-12-29T08:28:53;6.00;99.90
28171;DHT22;15458;53.346;-1.688;2022-12-29T08:31:22;6.00;99.90
28171;DHT22;15458;53.346;-1.688;2022-12-29T08:33:52;6.10;99.90
28171;DHT22;15458;53.346;-1.688;2022-12-29T08:36:17;6.10;99.90
28171;DHT22;15458;53.346;-1.688;2022-12-29T08:38:44;6.10;99.90
28171;DHT22;15458;53.346;-1.688;2022-12-29T08:41:10;6.10;99.90
28171;DHT22;15458;53.346;-1.688;2022-12-29T08:43:36;6.10;99.90
28171;DHT22;15458;53.346;-1.688;2022-12-29T08:46:04;6.10;99.90
28171;DHT22;15458;53.346;-1.688;2022-12-29T08:48:31;6.10;99.90
28171;DHT22;15458;53.346;-1.688;2022-12-29T08:50:57;6.10;99.90
28171;DHT22;15458;53.346;-1.688;2022-12-29T08:53:26;6.10;99.90
28171;DHT22;15458;53.346;-1.688;2022-12-29T08:55:57;6.10;99.90
28171;DHT22;15458;53.346;-1.688;2022-12-29T08:58:24;6.10;99.90
28171;DHT22;15458;53.346;-1.688;2022-12-29T09:00:57;6.10;99.90
28171;DHT22;15458;53.346;-1.688;2022-12-29T09:03:24;6.10;99.90
28171;DHT22;15458;53.346;-1.688;2022-12-29T09:05:51;6.10;99.90
28171;DHT22;15458;53.346;-1.688;2022-12-29T09:08:25;6.10;99.90
28171;DHT22;15458;53.346;-1.688;2022-12-29T09:11:08;6.10;99.90
28171;DHT22;15458;53.346;-1.688;2022-12-29T09:13:42;6.10;99.90
28171;DHT22;15458;53.346;-1.688;2022-12-29T09:16:34;6.10;99.90
28171;DHT22;15458;53.346;-1.688;2022-12-29T09:22:52;6.10;99.90
28171;DHT22;15458;53.346;-1.688;2022-12-29T09:25:21;6.10;99.90
28171;DHT22;15458;53.346;-1.688;2022-12-29T09:28:07;6.10;99.90
28171;DHT22;15458;53.346;-1.688;2022-12-29T09:30:36;6.10;99.90
28171;DHT22;15458;53.346;-1.688;2022-12-29T09:33:02;6.10;99.90
28171;DHT22;15458;53.346;-1.688;2022-12-29T09:35:28;6.20;99.90
28171;DHT22;15458;53.346;-1.688;2022-12-29T09:37:56;6.20;99.90
28171;DHT22;15458;53.346;-1.688;2022-12-29T09:40:34;6.20;99.90
28171;DHT22;15458;53.346;-1.688;2022-12-29T09:52:15;6.30;99.90
28171;DHT22;15458;53.346;-1.688;2022-12-29T09:57:30;6.50;99.90
28171;DHT22;15458;53.346;-1.688;2022-12-29T10:00:14;6.60;99.90
28171;DHT22;15458;53.346;-1.688;2022-12-29T10:03:24;6.80;99.90
28171;DHT22;15458;53.346;-1.688;2022-12-29T10:22:45;7.90;99.90
28171;DHT22;15458;53.346;-1.688;2022-12-29T10:25:24;8.00;99.90
28171;DHT22;15458;53.346;-1.688;2022-12-29T10:27:52;8.00;99.90
28171;DHT22;15458;53.346;-1.688;2022-12-29T10:33:36;8.30;99.90
28171;DHT22;15458;53.346;-1.688;2022-12-29T10:36:12;8.40;99.90
28171;DHT22;15458;53.346;-1.688;2022-12-29T10:38:52;8.50;99.90
28171;DHT22;15458;53.346;-1.688;2022-12-29T10:41:39;8.60;99.90
28171;DHT22;15458;53.346;-1.688;2022-12-29T10:44:14;8.50;99.90
28171;DHT22;15458;53.346;-1.688;2022-12-29T10:46:59;8.40;99.90
28171;DHT22;15458;53.346;-1.688;2022-12-29T10:49:30;8.20;99.90
28171;DHT22;15458;53.346;-1.688;2022-12-29T10:52:00;8.10;99.90
28171;DHT22;15458;53.346;-1.688;2022-12-29T11:00:20;8.20;99.90
28171;DHT22;15458;53.346;-1.688;2022-12-29T11:06:38;8.80;99.90
28171;DHT22;15458;53.346;-1.688;2022-12-29T11:09:37;8.90;99.90
28171;DHT22;15458;53.346;-1.688;2022-12-29T11:12:31;8.80;99.90
28171;DHT22;15458;53.346;-1.688;2022-12-29T11:15:15;8.60;99.90
28171;DHT22;15458;53.346;-1.688;2022-12-29T11:17:45;8.30;99.90
28171;DHT22;15458;53.346;-1.688;2022-12-29T11:20:35;8.20;99.90
28171;DHT22;15458;53.346;-1.688;2022-12-29T11:26:16;8.20;99.90
28171;DHT22;15458;53.346;-1.688;2022-12-29T11:28:46;8.40;99.90
28171;DHT22;15458;53.346;-1.688;2022-12-29T11:31:16;8.40;99.90
28171;DHT22;15458;53.346;-1.688;2022-12-29T11:33:42;8.40;99.90
28171;DHT22;15458;53.346;-1.688;2022-12-29T11:36:19;8.30;99.90
28171;DHT22;15458;53.346;-1.688;2022-12-29T11:39:00;8.30;99.90
28171;DHT22;15458;53.346;-1.688;2022-12-29T11:41:31;8.40;99.90
28171;DHT22;15458;53.346;-1.688;2022-12-29T11:44:03;8.70;99.90
28171;DHT22;15458;53.346;-1.688;2022-12-29T11:46:35;9.10;99.90
28171;DHT22;15458;53.346;-1.688;2022-12-29T11:49:03;9.50;99.90
28171;DHT22;15458;53.346;-1.688;2022-12-29T11:54:02;10.30;99.90
28171;DHT22;15458;53.346;-1.688;2022-12-29T11:56:39;10.60;99.90
28171;DHT22;15458;53.346;-1.688;2022-12-29T12:01:56;10.90;99.90
28171;DHT22;15458;53.346;-1.688;2022-12-29T12:04:29;11.00;98.60
28171;DHT22;15458;53.346;-1.688;2022-12-29T12:08:04;11.10;98.50
28171;DHT22;15458;53.346;-1.688;2022-12-29T12:09:59;11.20;97.20
28171;DHT22;15458;53.346;-1.688;2022-12-29T12:15:33;11.70;96.00
28171;DHT22;15458;53.346;-1.688;2022-12-29T12:18:13;11.60;95.60
28171;DHT22;15458;53.346;-1.688;2022-12-29T12:26:15;10.70;96.20
28171;DHT22;15458;53.346;-1.688;2022-12-29T12:29:08;10.20;96.40
28171;DHT22;15458;53.346;-1.688;2022-12-29T12:31:55;10.10;97.10
28171;DHT22;15458;53.346;-1.688;2022-12-29T12:45:36;8.80;99.90
28171;DHT22;15458;53.346;-1.688;2022-12-29T12:53:40;8.20;99.90
28171;DHT22;15458;53.346;-1.688;2022-12-29T12:56:37;8.10;99.90
28171;DHT22;15458;53.346;-1.688;2022-12-29T13:10:05;7.80;99.90
28171;DHT22;15458;53.346;-1.688;2022-12-29T13:13:05;7.80;99.90
28171;DHT22;15458;53.346;-1.688;2022-12-29T13:24:20;7.80;99.90
28171;DHT22;15458;53.346;-1.688;2022-12-29T13:26:56;8.10;99.90
28171;DHT22;15458;53.346;-1.688;2022-12-29T13:37:51;8.50;99.90
28171;DHT22;15458;53.346;-1.688;2022-12-29T13:40:23;8.30;99.90
28171;DHT22;15458;53.346;-1.688;2022-12-29T13:42:50;8.10;99.90
28171;DHT22;15458;53.346;-1.688;2022-12-29T13:45:20;8.00;99.90
28171;DHT22;15458;53.346;-1.688;2022-12-29T13:47:56;7.90;99.90
28171;DHT22;15458;53.346;-1.688;2022-12-29T13:50:26;7.80;99.90
28171;DHT22;15458;53.346;-1.688;2022-12-29T13:53:15;7.70;99.90
28171;DHT22;15458;53.346;-1.688;2022-12-29T13:56:04;7.80;99.90
28171;DHT22;15458;53.346;-1.688;2022-12-29T13:58:31;7.80;99.90
28171;DHT22;15458;53.346;-1.688;2022-12-29T14:03:46;7.70;99.90
28171;DHT22;15458;53.346;-1.688;2022-12-29T14:09:00;8.70;99.90
28171;DHT22;15458;53.346;-1.688;2022-12-29T14:11:35;9.10;99.90
28171;DHT22;15458;53.346;-1.688;2022-12-29T14:14:24;9.50;98.60
28171;DHT22;15458;53.346;-1.688;2022-12-29T14:16:51;9.60;98.20
28171;DHT22;15458;53.346;-1.688;2022-12-29T14:19:28;9.90;97.20
28171;DHT22;15458;53.346;-1.688;2022-12-29T14:22:00;9.90;95.80
28171;DHT22;15458;53.346;-1.688;2022-12-29T14:37:46;8.00;99.90
28171;DHT22;15458;53.346;-1.688;2022-12-29T14:40:24;7.90;99.90
28171;DHT22;15458;53.346;-1.688;2022-12-29T14:42:52;7.80;99.90
28171;DHT22;15458;53.346;-1.688;2022-12-29T14:47:51;7.70;99.90
28171;DHT22;15458;53.346;-1.688;2022-12-29T14:50:42;7.60;99.90
28171;DHT22;15458;53.346;-1.688;2022-12-29T14:53:46;7.50;99.90
28171;DHT22;15458;53.346;-1.688;2022-12-29T14:56:17;7.40;99.90
28171;DHT22;15458;53.346;-1.688;2022-12-29T14:59:05;7.30;99.90
28171;DHT22;15458;53.346;-1.688;2022-12-29T15:01:45;7.20;99.90
28171;DHT22;15458;53.346;-1.688;2022-12-29T15:04:30;7.10;99.90
28171;DHT22;15458;53.346;-1.688;2022-12-29T15:07:02;7.00;99.90
28171;DHT22;15458;53.346;-1.688;2022-12-29T15:14:57;6.90;99.90
28171;DHT22;15458;53.346;-1.688;2022-12-29T15:19:55;6.80;99.90
28171;DHT22;15458;53.346;-1.688;2022-12-29T15:22:21;6.80;99.90
28171;DHT22;15458;53.346;-1.688;2022-12-29T15:24:52;6.80;99.90
28171;DHT22;15458;53.346;-1.688;2022-12-29T15:27:23;6.80;99.90
28171;DHT22;15458;53.346;-1.688;2022-12-29T15:30:03;6.70;99.90
28171;DHT22;15458;53.346;-1.688;2022-12-29T15:32:40;6.70;99.90
28171;DHT22;15458;53.346;-1.688;2022-12-29T15:35:32;6.70;99.90
28171;DHT22;15458;53.346;-1.688;2022-12-29T15:38:16;6.70;99.90
28171;DHT22;15458;53.346;-1.688;2022-12-29T15:40:45;6.60;99.90
28171;DHT22;15458;53.346;-1.688;2022-12-29T15:45:52;6.70;99.90
28171;DHT22;15458;53.346;-1.688;2022-12-29T15:48:24;6.60;99.90
28171;DHT22;15458;53.346;-1.688;2022-12-29T15:50:50;6.60;99.90
28171;DHT22;15458;53.346;-1.688;2022-12-29T15:53:32;6.60;99.90
28171;DHT22;15458;53.346;-1.688;2022-12-29T15:56:06;6.50;99.90
28171;DHT22;15458;53.346;-1.688;2022-12-29T15:58:40;6.50;99.90
28171;DHT22;15458;53.346;-1.688;2022-12-29T16:01:37;6.50;99.90
28171;DHT22;15458;53.346;-1.688;2022-12-29T16:04:09;6.50;99.90
28171;DHT22;15458;53.346;-1.688;2022-12-29T16:06:39;6.40;99.90
28171;DHT22;15458;53.346;-1.688;2022-12-29T16:09:28;6.50;99.90
28171;DHT22;15458;53.346;-1.688;2022-12-29T16:11:59;6.40;99.90
28171;DHT22;15458;53.346;-1.688;2022-12-29T16:14:47;6.40;99.90
28171;DHT22;15458;53.346;-1.688;2022-12-29T16:17:20;6.30;99.90
28171;DHT22;15458;53.346;-1.688;2022-12-29T16:19:52;6.40;99.90
28171;DHT22;15458;53.346;-1.688;2022-12-29T16:22:33;6.30;99.90
28171;DHT22;15458;53.346;-1.688;2022-12-29T16:25:23;6.30;99.90
28171;DHT22;15458;53.346;-1.688;2022-12-29T16:27:50;6.20;99.90
28171;DHT22;15458;53.346;-1.688;2022-12-29T16:30:25;6.20;99.90
28171;DHT22;15458;53.346;-1.688;2022-12-29T16:32:53;6.30;99.90
28171;DHT22;15458;53.346;-1.688;2022-12-29T16:35:27;6.20;99.90
28171;DHT22;15458;53.346;-1.688;2022-12-29T16:38:23;6.20;99.90
28171;DHT22;15458;53.346;-1.688;2022-12-29T16:40:57;6.20;99.90
28171;DHT22;15458;53.346;-1.688;2022-12-29T16:43:36;6.20;99.90
28171;DHT22;15458;53.346;-1.688;2022-12-29T16:46:27;6.20;99.90
28171;DHT22;15458;53.346;-1.688;2022-12-29T16:48:57;6.10;99.90
28171;DHT22;15458;53.346;-1.688;2022-12-29T16:51:32;6.10;99.90
28171;DHT22;15458;53.346;-1.688;2022-12-29T16:54:02;6.10;99.90
28171;DHT22;15458;53.346;-1.688;2022-12-29T16:56:34;6.10;99.90
28171;DHT22;15458;53.346;-1.688;2022-12-29T16:59:15;6.00;99.90
28171;DHT22;15458;53.346;-1.688;2022-12-29T17:01:49;5.90;99.90
28171;DHT22;15458;53.346;-1.688;2022-12-29T17:04:15;5.90;99.90
28171;DHT22;15458;53.346;-1.688;2022-12-29T17:06:43;5.90;99.90
28171;DHT22;15458;53.346;-1.688;2022-12-29T17:09:31;5.80;99.90
28171;DHT22;15458;53.346;-1.688;2022-12-29T17:11:59;5.80;99.90
28171;DHT22;15458;53.346;-1.688;2022-12-29T17:16:57;5.80;99.90
28171;DHT22;15458;53.346;-1.688;2022-12-29T17:19:33;5.90;99.90
28171;DHT22;15458;53.346;-1.688;2022-12-29T17:22:01;5.90;99.90
28171;DHT22;15458;53.346;-1.688;2022-12-29T17:37:46;5.80;99.90
28171;DHT22;15458;53.346;-1.688;2022-12-29T17:40:19;5.80;99.90
28171;DHT22;15458;53.346;-1.688;2022-12-29T17:42:47;5.70;99.90
28171;DHT22;15458;53.346;-1.688;2022-12-29T17:45:23;5.70;99.90
28171;DHT22;15458;53.346;-1.688;2022-12-29T17:47:50;5.60;99.90
28171;DHT22;15458;53.346;-1.688;2022-12-29T17:50:18;5.60;99.90
28171;DHT22;15458;53.346;-1.688;2022-12-29T17:52:58;5.50;99.90
28171;DHT22;15458;53.346;-1.688;2022-12-29T17:55:24;5.50;99.90
28171;DHT22;15458;53.346;-1.688;2022-12-29T17:57:51;5.40;99.90
28171;DHT22;15458;53.346;-1.688;2022-12-29T18:00:25;5.40;99.90
28171;DHT22;15458;53.346;-1.688;2022-12-29T18:02:56;5.40;99.90
28171;DHT22;15458;53.346;-1.688;2022-12-29T18:05:28;5.30;99.90
28171;DHT22;15458;53.346;-1.688;2022-12-29T18:07:56;5.30;99.90
28171;DHT22;15458;53.346;-1.688;2022-12-29T18:10:24;5.30;99.90
28171;DHT22;15458;53.346;-1.688;2022-12-29T18:12:53;5.30;99.90
28171;DHT22;15458;53.346;-1.688;2022-12-29T18:15:28;5.20;99.90
28171;DHT22;15458;53.346;-1.688;2022-12-29T18:18:01;5.20;99.90
28171;DHT22;15458;53.346;-1.688;2022-12-29T18:20:28;5.20;99.90
28171;DHT22;15458;53.346;-1.688;2022-12-29T18:22:54;5.10;99.90
28171;DHT22;15458;53.346;-1.688;2022-12-29T18:25:38;5.10;99.90
28171;DHT22;15458;53.346;-1.688;2022-12-29T18:28:05;5.10;99.90
28171;DHT22;15458;53.346;-1.688;2022-12-29T18:30:37;5.10;99.90
28171;DHT22;15458;53.346;-1.688;2022-12-29T18:33:20;5.10;99.90
28171;DHT22;15458;53.346;-1.688;2022-12-29T18:36:00;5.00;99.90
28171;DHT22;15458;53.346;-1.688;2022-12-29T18:38:27;5.00;99.90
28171;DHT22;15458;53.346;-1.688;2022-12-29T18:40:54;4.90;99.90
28171;DHT22;15458;53.346;-1.688;2022-12-29T18:43:24;4.90;99.90
28171;DHT22;15458;53.346;-1.688;2022-12-29T18:45:50;4.90;99.90
28171;DHT22;15458;53.346;-1.688;2022-12-29T18:48:17;4.80;99.90
28171;DHT22;15458;53.346;-1.688;2022-12-29T18:50:44;4.80;99.90
28171;DHT22;15458;53.346;-1.688;2022-12-29T18:53:19;4.80;99.90
28171;DHT22;15458;53.346;-1.688;2022-12-29T18:55:44;4.80;99.90
28171;DHT22;15458;53.346;-1.688;2022-12-29T18:58:10;4.80;99.90
28171;DHT22;15458;53.346;-1.688;2022-12-29T19:00:37;4.70;99.90
28171;DHT22;15458;53.346;-1.688;2022-12-29T19:03:02;4.70;99.90
28171;DHT22;15458;53.346;-1.688;2022-12-29T19:05:36;4.70;99.90
28171;DHT22;15458;53.346;-1.688;2022-12-29T19:08:02;4.70;99.90
28171;DHT22;15458;53.346;-1.688;2022-12-29T19:10:28;4.70;99.90
28171;DHT22;15458;53.346;-1.688;2022-12-29T19:12:55;4.70;99.90
28171;DHT22;15458;53.346;-1.688;2022-12-29T19:15:22;4.70;99.90